Time;durP1;ratioP1;P1;durP2;ratioP2;P2;SDS_P1;SDS_P2;PMS_P1;PMS_P2;Temp;Humidity;BMP_temperature;BMP_pressure;BME280_temperature;BME280_humidity;BME280_pressure;Samples;Min_cycle;Max_cycle;Signal;HPM_P1;HPM_P2
2024/01/11 00:01:37;;;;;;;1.45;1.42;;;;;;;;;;5059348;28;20390;-57
2024/01/11 00:04:03;;;;;;;3.72;3.42;;;;;;;;;;5054241;28;20052;-59
2024/01/11 00:06:29;;;;;;;4.03;2.90;;;;;;;;;;5055098;28;20056;-58
2024/01/11 00:08:55;;;;;;;3.05;2.08;;;;;;;;;;5055225;28;20041;-57
2024/01/11 00:11:21;;;;;;;2.88;1.77;;;;;;;;;;5055356;28;20049;-58
2024/01/11 00:13:47;;;;;;;1.95;1.80;;;;;;;;;;5055320;28;20056;-57
2024/01/11 00:16:13;;;;;;;1.60;1.27;;;;;;;;;;5055144;28;20048;-59
2024/01/11 00:18:39;;;;;;;2.90;2.17;;;;;;;;;;5055273;28;20131;-58
2024/01/11 00:21:05;;;;;;;2.25;1.85;;;;;;;;;;5055938;28;20044;-58
2024/01/11 00:23:31;;;;;;;3.17;2.88;;;;;;;;;;5055451;28;20102;-58
2024/01/11 00:25:59;;;;;;;3.67;1.73;;;;;;;;;;5055772;28;20049;-57
2024/01/11 00:28:25;;;;;;;2.50;1.55;;;;;;;;;;5054944;28;20053;-57
2024/01/11 00:30:51;;;;;;;4.18;3.85;;;;;;;;;;5055040;28;20041;-57
2024/01/11 00:33:17;;;;;;;3.67;2.30;;;;;;;;;;5055729;28;20049;-58
2024/01/11 00:35:43;;;;;;;2.10;2.00;;;;;;;;;;5055884;28;20045;-58
2024/01/11 00:38:09;;;;;;;6.32;3.13;;;;;;;;;;5056063;28;20049;-58
2024/01/11 00:40:35;;;;;;;7.95;2.97;;;;;;;;;;5057042;28;20049;-57
2024/01/11 00:43:01;;;;;;;2.55;2.08;;;;;;;;;;5054627;28;20481;-57
2024/01/11 00:45:27;;;;;;;1.92;1.83;;;;;;;;;;5056793;28;20045;-58
2024/01/11 00:47:53;;;;;;;7.57;2.15;;;;;;;;;;5054587;28;20087;-57
2024/01/11 00:50:19;;;;;;;2.15;1.95;;;;;;;;;;5057123;28;20045;-58
2024/01/11 00:52:45;;;;;;;7.18;2.33;;;;;;;;;;5056001;28;20045;-57
2024/01/11 00:55:11;;;;;;;2.53;1.92;;;;;;;;;;5056480;28;20041;-57
2024/01/11 00:57:37;;;;;;;1.75;1.48;;;;;;;;;;5055709;28;20057;-57
2024/01/11 01:00:04;;;;;;;2.97;1.58;;;;;;;;;;5055611;28;20493;-58
2024/01/11 01:02:30;;;;;;;1.33;0.95;;;;;;;;;;5062722;28;20052;-57
2024/01/11 01:04:56;;;;;;;1.52;1.48;;;;;;;;;;5071743;28;20045;-58
2024/01/11 01:07:22;;;;;;;1.15;0.85;;;;;;;;;;5054185;28;20041;-57
2024/01/11 01:09:48;;;;;;;1.60;1.50;;;;;;;;;;5066956;28;20090;-57
2024/01/11 01:12:14;;;;;;;1.40;1.30;;;;;;;;;;5063095;28;20040;-58
2024/01/11 01:14:40;;;;;;;1.10;1.08;;;;;;;;;;5058224;28;20424;-58
2024/01/11 01:17:06;;;;;;;2.67;2.47;;;;;;;;;;5054052;28;20424;-58
2024/01/11 01:19:33;;;;;;;0.82;0.82;;;;;;;;;;5055522;28;20481;-57
2024/01/11 01:21:59;;;;;;;1.50;1.40;;;;;;;;;;5073731;28;20531;-57
2024/01/11 01:24:25;;;;;;;1.05;0.82;;;;;;;;;;5059975;28;20055;-57
2024/01/11 01:26:51;;;;;;;1.13;1.00;;;;;;;;;;5073333;28;20044;-57
2024/01/11 01:29:17;;;;;;;1.13;1.13;;;;;;;;;;5072864;28;20044;-58
2024/01/11 01:31:43;;;;;;;2.42;1.95;;;;;;;;;;5073343;28;20074;-57
2024/01/11 01:34:09;;;;;;;3.20;0.95;;;;;;;;;;5071654;28;20048;-57
2024/01/11 01:36:35;;;;;;;1.02;1.02;;;;;;;;;;5073380;28;20075;-58
2024/01/11 01:39:03;;;;;;;6.25;2.38;;;;;;;;;;5057132;28;20549;-58
2024/01/11 01:41:29;;;;;;;2.13;1.92;;;;;;;;;;5053886;28;20080;-57
2024/01/11 01:43:55;;;;;;;1.13;1.13;;;;;;;;;;5053661;28;20048;-58
2024/01/11 01:46:23;;;;;;;1.08;1.00;;;;;;;;;;5053411;28;20045;-59
2024/01/11 01:48:50;;;;;;;1.67;1.55;;;;;;;;;;5053697;28;20045;-58
2024/01/11 01:51:16;;;;;;;1.75;1.10;;;;;;;;;;5053441;28;20037;-57
2024/01/11 01:53:42;;;;;;;4.75;1.95;;;;;;;;;;5053534;28;20056;-58
2024/01/11 01:56:09;;;;;;;0.73;0.73;;;;;;;;;;5052773;28;20463;-57
2024/01/11 01:58:36;;;;;;;1.42;1.33;;;;;;;;;;5053442;28;20068;-58
2024/01/11 02:01:02;;;;;;;1.45;1.35;;;;;;;;;;5053548;28;20134;-59
2024/01/11 02:03:28;;;;;;;3.25;2.75;;;;;;;;;;5068732;28;20400;-57
2024/01/11 02:05:56;;;;;;;2.45;2.03;;;;;;;;;;5072620;28;20040;-57
2024/01/11 02:08:25;;;;;;;1.65;1.52;;;;;;;;;;5071770;28;20049;-58
2024/01/11 02:10:52;;;;;;;1.38;1.27;;;;;;;;;;5072335;28;20044;-57
2024/01/11 02:13:19;;;;;;;3.03;1.02;;;;;;;;;;5071123;28;20048;-58
2024/01/11 02:15:45;;;;;;;2.15;1.00;;;;;;;;;;5072075;28;20078;-58
2024/01/11 02:18:11;;;;;;;;;;;;;;;;;;5071542;28;20043;-57
2024/01/11 02:20:37;;;;;;;0.93;0.93;;;;;;;;;;5071870;28;19920;-57
2024/01/11 02:23:06;;;;;;;1.58;1.38;;;;;;;;;;5070777;28;20048;-58
2024/01/11 02:25:32;;;;;;;0.75;0.75;;;;;;;;;;5071609;28;20048;-58
2024/01/11 02:27:58;;;;;;;1.20;1.02;;;;;;;;;;5070815;28;20071;-59
2024/01/11 02:30:24;;;;;;;6.63;1.77;;;;;;;;;;5071549;28;20051;-58
2024/01/11 02:32:51;;;;;;;2.33;1.52;;;;;;;;;;5069790;28;20117;-58
2024/01/11 02:35:17;;;;;;;1.98;1.88;;;;;;;;;;5071043;28;20399;-57
2024/01/11 02:37:44;;;;;;;4.65;1.52;;;;;;;;;;5069268;28;20045;-57
2024/01/11 02:40:10;;;;;;;2.03;1.77;;;;;;;;;;5070724;28;20136;-59
2024/01/11 02:42:36;;;;;;;2.20;1.75;;;;;;;;;;5056959;28;20040;-57
2024/01/11 02:45:06;;;;;;;1.23;1.15;;;;;;;;;;5070594;28;20048;-57
2024/01/11 02:47:32;;;;;;;1.17;1.15;;;;;;;;;;5068264;28;20052;-58
2024/01/11 02:49:58;;;;;;;1.13;1.13;;;;;;;;;;5070010;28;20416;-59
2024/01/11 02:52:24;;;;;;;1.90;1.63;;;;;;;;;;5068129;28;20098;-57
2024/01/11 02:54:50;;;;;;;1.25;1.13;;;;;;;;;;5069504;28;20067;-58
2024/01/11 02:57:16;;;;;;;1.98;1.85;;;;;;;;;;5066953;28;20056;-58
2024/01/11 02:59:43;;;;;;;1.52;1.40;;;;;;;;;;5068821;28;20041;-57
2024/01/11 03:02:09;;;;;;;1.30;1.00;;;;;;;;;;5052080;28;20045;-57
2024/01/11 03:04:35;;;;;;;1.52;0.95;;;;;;;;;;5052320;28;20044;-59
2024/01/11 03:07:02;;;;;;;0.65;0.65;;;;;;;;;;5051448;28;20052;-57
2024/01/11 03:09:28;;;;;;;1.65;1.20;;;;;;;;;;5052619;28;20044;-57
2024/01/11 03:11:54;;;;;;;1.35;1.25;;;;;;;;;;5052520;28;20076;-57
2024/01/11 03:14:20;;;;;;;1.02;0.98;;;;;;;;;;5052315;28;20056;-57
2024/01/11 03:16:46;;;;;;;2.97;1.60;;;;;;;;;;5052071;28;20091;-57
2024/01/11 03:19:12;;;;;;;1.23;1.08;;;;;;;;;;5052299;28;20049;-57
2024/01/11 03:21:46;;;;;;;6.72;2.10;;;;;;;;;;5051910;28;20049;-57
2024/01/11 03:24:12;;;;;;;5.88;2.97;;;;;;;;;;5053473;28;20063;-58
2024/01/11 03:26:38;;;;;;;1.65;1.08;;;;;;;;;;5052773;28;20493;-57
2024/01/11 03:29:04;;;;;;;4.13;1.83;;;;;;;;;;5052759;28;20045;-57
2024/01/11 03:31:31;;;;;;;4.00;2.22;;;;;;;;;;5053039;28;20052;-57
2024/01/11 03:33:57;;;;;;;5.38;2.35;;;;;;;;;;5053607;28;20079;-62
2024/01/11 03:36:24;;;;;;;3.20;2.92;;;;;;;;;;5040570;28;20037;-57
2024/01/11 03:38:51;;;;;;;1.98;1.55;;;;;;;;;;5053690;28;20140;-57
2024/01/11 03:41:17;;;;;;;4.80;3.60;;;;;;;;;;5052746;28;20044;-58
2024/01/11 03:43:43;;;;;;;1.98;1.75;;;;;;;;;;5053772;28;20111;-58
2024/01/11 03:46:09;;;;;;;3.72;1.85;;;;;;;;;;5052521;28;20134;-58
2024/01/11 03:48:38;;;;;;;2.17;1.65;;;;;;;;;;5052500;28;20090;-57
2024/01/11 03:51:04;;;;;;;4.57;1.50;;;;;;;;;;5052848;28;20041;-58
2024/01/11 03:53:30;;;;;;;;;;;-3.10;1.60;;;;;;5053847;28;20053;-58
2024/01/11 03:55:56;;;;;;;1.38;1.17;;;;;;;;;;5052415;28;19924;-57
2024/01/11 03:58:22;;;;;;;3.10;1.20;;;;;;;;;;5052914;28;20122;-58
2024/01/11 04:00:48;;;;;;;1.30;1.20;;;;;;;;;;5052058;28;20068;-58
2024/01/11 04:03:14;;;;;;;3.13;1.77;;;;;;;;;;5065645;28;20110;-58
2024/01/11 04:05:41;;;;;;;4.15;1.30;;;;;;;;;;5070980;28;20048;-57
2024/01/11 04:08:07;;;;;;;1.80;1.48;;;;;;;;;;5070845;28;20059;-58
2024/01/11 04:10:33;;;;;;;1.17;1.05;;;;;;;;;;5069865;28;20080;-58
2024/01/11 04:12:59;;;;;;;;;;;;;;;;;;5070531;28;20059;-58
2024/01/11 04:15:26;;;;;;;3.63;2.33;;;;;;;;;;5070822;28;19920;-58
2024/01/11 04:17:52;;;;;;;5.05;2.92;;;;;;;;;;5071824;28;20049;-58
2024/01/11 04:20:18;;;;;;;6.95;2.80;;;;;;;;;;5066568;28;20045;-57
2024/01/11 04:22:44;;;;;;;3.92;2.35;;;;;;;;;;5069664;28;20052;-57
2024/01/11 04:25:11;;;;;;;1.92;1.80;;;;;;;;;;5074689;28;20472;-57
2024/01/11 04:27:37;;;;;;;5.85;2.47;;;;;;;;;;5073813;28;20044;-58
2024/01/11 04:30:03;;;;;;;6.78;3.03;;;;;;;;;;5074509;28;20070;-58
2024/01/11 04:32:29;;;;;;;12.00;2.88;;;;;;;;;;5073640;28;20056;-57
2024/01/11 04:34:55;;;;;;;5.53;2.17;;;;;;;;;;5065917;28;20049;-58
2024/01/11 04:37:21;;;;;;;2.60;1.55;;;;;;;;;;5068891;28;20507;-58
2024/01/11 04:39:48;;;;;;;2.13;2.03;;;;;;;;;;5073562;28;20044;-57
2024/01/11 04:42:14;;;;;;;2.08;1.92;;;;;;;;;;5072723;28;20127;-58
2024/01/11 04:44:40;;;;;;;3.47;2.17;;;;;;;;;;5073664;28;20055;-57
2024/01/11 04:47:08;;;;;;;3.75;1.48;;;;;;;;;;5072298;28;20055;-59
2024/01/11 04:49:34;;;;;;;7.45;1.65;;;;;;;;;;5065155;28;20397;-58
2024/01/11 04:52:00;;;;;;;1.80;1.48;;;;;;;;;;5068546;28;20135;-58
2024/01/11 04:54:26;;;;;;;;;;;;;;;;;;5073739;28;20045;-58
2024/01/11 04:56:52;;;;;;;3.17;1.48;;;;;;;;;;5072136;28;19928;-58
2024/01/11 04:59:18;;;;;;;0.32;0.32;;;;;;;;;;5073974;28;20481;-57
2024/01/11 05:01:46;;;;;;;0.65;0.65;;;;;;;;;;5057895;28;20124;-57
2024/01/11 05:04:12;;;;;;;1.15;1.15;;;;;;;;;;5054268;28;20584;-60
2024/01/11 05:06:38;;;;;;;0.30;0.30;;;;;;;;;;5067322;28;20123;-58
2024/01/11 05:09:04;;;;;;;1.25;0.95;;;;;;;;;;5054248;28;20052;-57
2024/01/11 05:11:30;;;;;;;;;;;-1.80;3.60;;;;;;5056637;28;20076;-58
2024/01/11 05:13:56;;;;;;;1.38;1.27;;;;;;;;;;5074420;28;20352;-57
2024/01/11 05:16:23;;;;;;;0.98;0.98;;;;;;;;;;5073395;28;20112;-60
2024/01/11 05:18:50;;;;;;;0.43;0.43;;;;;;;;;;5073788;28;20170;-58
2024/01/11 05:21:15;;;;;;;;;;;-1.90;1.20;;;;;;5071032;28;20060;-58
2024/01/11 05:23:42;;;;;;;0.60;0.60;;;;;;;;;;5053874;28;20014;-57
2024/01/11 05:26:08;;;;;;;0.75;0.75;;;;;;;;;;5066979;28;20142;-58
2024/01/11 05:28:34;;;;;;;0.73;0.73;;;;;;;;;;5053941;28;20488;-58
2024/01/11 05:31:00;;;;;;;1.65;1.55;;;;;;;;;;5053177;28;20113;-57
2024/01/11 05:33:26;;;;;;;1.40;1.30;;;;;;;;;;5054446;28;20048;-57
2024/01/11 05:35:53;;;;;;;0.73;0.73;;;;;;;;;;5055275;28;20044;-58
2024/01/11 05:38:20;;;;;;;0.85;0.85;;;;;;;;;;5054848;28;20084;-58
2024/01/11 05:40:46;;;;;;;;;;;;;;;;;;5055308;28;20507;-57
2024/01/11 05:43:12;;;;;;;2.08;1.98;;;;;;;;;;5053978;28;19920;-58
2024/01/11 05:45:38;;;;;;;2.80;1.80;;;;;;;;;;5054150;28;20485;-58
2024/01/11 05:48:05;;;;;;;2.13;2.03;;;;;;;;;;5054031;28;20452;-58
2024/01/11 05:50:32;;;;;;;1.67;1.35;;;;;;;;;;5054295;28;20045;-57
2024/01/11 05:52:58;;;;;;;0.82;0.82;;;;;;;;;;5054120;28;20128;-58
2024/01/11 05:55:24;;;;;;;0.98;0.93;;;;;;;;;;5054324;28;20481;-58
2024/01/11 05:57:50;;;;;;;1.13;1.13;;;;;;;;;;5053411;28;20504;-59
2024/01/11 06:00:16;;;;;;;0.57;0.57;;;;;;;;;;5054000;28;20052;-58
2024/01/11 06:02:43;;;;;;;1.38;1.30;;;;;;;;;;5053158;28;20053;-58
2024/01/11 06:05:09;;;;;;;1.63;1.45;;;;;;;;;;5052892;28;20461;-57
2024/01/11 06:07:35;;;;;;;1.60;1.50;;;;;;;;;;5052961;28;20775;-57
2024/01/11 06:10:02;;;;;;;0.50;0.50;;;;;;;;;;5052798;28;20040;-58
2024/01/11 06:12:29;;;;;;;0.93;0.93;;;;;;;;;;5063478;28;20135;-58
2024/01/11 06:14:55;;;;;;;11.00;2.75;;;;;;;;;;5072016;28;20443;-58
2024/01/11 06:17:21;;;;;;;1.80;1.70;;;;;;;;;;5071952;28;20809;-57
2024/01/11 06:19:47;;;;;;;1.55;1.45;;;;;;;;;;5072026;28;20044;-58
2024/01/11 06:22:13;;;;;;;1.77;1.67;;;;;;;;;;5072378;28;20503;-58
2024/01/11 06:24:39;;;;;;;4.97;2.47;;;;;;;;;;5071391;28;20067;-57
2024/01/11 06:27:05;;;;;;;1.40;1.40;;;;;;;;;;5072168;28;20052;-59
2024/01/11 06:29:31;;;;;;;1.05;1.05;;;;;;;;;;5071678;28;20087;-57
2024/01/11 06:31:57;;;;;;;3.53;2.53;;;;;;;;;;5061525;28;20060;-58
2024/01/11 06:34:23;;;;;;;1.75;1.65;;;;;;;;;;5052179;28;20080;-58
2024/01/11 06:36:49;;;;;;;1.40;1.35;;;;;;;;;;5052539;28;20049;-58
2024/01/11 06:39:16;;;;;;;1.98;1.88;;;;;;;;;;5052728;28;20067;-57
2024/01/11 06:41:42;;;;;;;1.73;1.63;;;;;;;;;;5052820;28;20059;-58
2024/01/11 06:44:09;;;;;;;2.40;0.95;;;;;;;;;;5053127;28;20041;-58
2024/01/11 06:46:36;;;;;;;1.25;1.23;;;;;;;;;;5052683;28;20508;-58
2024/01/11 06:49:02;;;;;;;2.60;2.40;;;;;;;;;;5052610;28;20076;-58
2024/01/11 06:51:28;;;;;;;1.52;1.42;;;;;;;;;;5063481;28;20044;-59
2024/01/11 06:53:54;;;;;;;1.48;1.38;;;;;;;;;;5054031;28;20130;-58
2024/01/11 06:56:23;;;;;;;1.65;1.50;;;;;;;;;;5052588;28;20056;-58
2024/01/11 06:58:49;;;;;;;0.60;0.60;;;;;;;;;;5053185;28;20071;-58
2024/01/11 07:01:16;;;;;;;1.48;1.38;;;;;;;;;;5052798;28;20370;-58
2024/01/11 07:03:42;;;;;;;1.75;1.42;;;;;;;;;;5056911;28;20056;-58
2024/01/11 07:06:08;;;;;;;3.55;2.60;;;;;;;;;;5060187;28;20045;-57
2024/01/11 07:08:34;;;;;;;2.53;1.23;;;;;;;;;;5051985;28;20056;-60
2024/01/11 07:11:02;;;;;;;2.38;1.65;;;;;;;;;;5052208;28;20051;-58
2024/01/11 07:13:28;;;;;;;0.73;0.68;;;;;;;;;;5052885;28;20048;-58
2024/01/11 07:15:55;;;;;;;;;;;;;;;;;;5051964;28;20136;-59
2024/01/11 07:18:22;;;;;;;1.13;1.13;;;;;;;;;;5053496;28;19927;-58
2024/01/11 07:20:47;;;;;;;;;;;-0.90;54.90;;;;;;5053160;28;20075;-58
2024/01/11 07:23:14;;;;;;;1.45;1.35;;;;;;;;;;5053310;28;19924;-58
2024/01/11 07:25:40;;;;;;;;;;;;;;;;;;5053017;28;20125;-59
2024/01/11 07:28:07;;;;;;;3.73;1.83;;;;;;;;;;5053475;28;19921;-58
2024/01/11 07:30:33;;;;;;;2.40;2.05;;;;;;;;;;5052526;28;20041;-57
2024/01/11 07:32:59;;;;;;;1.25;1.25;;;;;;;;;;5052428;28;20374;-58
2024/01/11 07:35:25;;;;;;;2.20;2.10;;;;;;;;;;5052155;28;20044;-58
2024/01/11 07:37:51;;;;;;;1.90;1.40;;;;;;;;;;5052620;28;20052;-58
2024/01/11 07:40:17;;;;;;;1.17;1.17;;;;;;;;;;5052324;28;20041;-58
2024/01/11 07:42:43;;;;;;;1.05;1.05;;;;;;;;;;5052559;28;20509;-58
2024/01/11 07:45:10;;;;;;;2.72;1.75;;;;;;;;;;5052003;28;20489;-59
2024/01/11 07:47:39;;;;;;;1.48;1.38;;;;;;;;;;5052702;28;20142;-59
2024/01/11 07:50:12;;;;;;;2.10;1.88;;;;;;;;;;5052116;28;20095;-58
2024/01/11 07:52:41;;;;;;;2.58;2.13;;;;;;;;;;5040564;28;20127;-58
2024/01/11 07:55:08;;;;;;;1.13;1.13;;;;;;;;;;5055714;28;20053;-58
2024/01/11 07:57:34;;;;;;;1.05;1.02;;;;;;;;;;5055918;28;20075;-58
2024/01/11 08:00:00;;;;;;;;;;;-0.30;74.10;;;;;;5056367;28;20063;-58
2024/01/11 08:02:27;;;;;;;2.95;2.35;;;;;;;;;;5063636;28;20296;-58
2024/01/11 08:04:53;;;;;;;1.20;1.13;;;;;;;;;;5074382;28;20056;-58
2024/01/11 08:07:19;;;;;;;5.85;2.42;;;;;;;;;;5075065;28;20127;-58
2024/01/11 08:09:45;;;;;;;1.00;1.00;;;;;;;;;;5074076;28;20044;-59
2024/01/11 08:12:13;;;;;;;1.35;1.33;;;;;;;;;;5075069;28;20052;-58
2024/01/11 08:14:39;;;;;;;1.60;1.50;;;;;;;;;;5074252;28;20052;-58
2024/01/11 08:17:05;;;;;;;2.10;2.00;;;;;;;;;;5074476;28;20523;-58
2024/01/11 08:19:32;;;;;;;1.55;1.48;;;;;;;;;;5073795;28;20045;-58
2024/01/11 08:21:58;;;;;;;3.30;1.38;;;;;;;;;;5074729;28;20127;-58
2024/01/11 08:24:27;;;;;;;2.88;2.67;;;;;;;;;;5073492;28;20048;-58
2024/01/11 08:26:53;;;;;;;1.60;1.50;;;;;;;;;;5074283;28;20416;-58
2024/01/11 08:29:19;;;;;;;2.60;1.85;;;;;;;;;;5073091;28;20234;-59
2024/01/11 08:31:48;;;;;;;0.73;0.73;;;;;;;;;;5073881;28;20559;-58
2024/01/11 08:34:14;;;;;;;0.75;0.75;;;;;;;;;;5073262;28;20056;-59
2024/01/11 08:36:40;;;;;;;2.97;1.75;;;;;;;;;;5074271;28;20186;-58
2024/01/11 08:39:07;;;;;;;3.25;1.55;;;;;;;;;;5065652;28;20045;-58
2024/01/11 08:41:35;;;;;;;1.35;1.25;;;;;;;;;;5053174;28;20489;-58
2024/01/11 08:44:02;;;;;;;1.48;1.38;;;;;;;;;;5055987;28;20080;-59
2024/01/11 08:46:28;;;;;;;5.03;2.17;;;;;;;;;;5074123;28;20047;-58
2024/01/11 08:48:56;;;;;;;4.78;3.20;;;;;;;;;;5060242;28;20067;-58
2024/01/11 08:51:22;;;;;;;2.70;1.38;;;;;;;;;;5071091;28;20052;-59
2024/01/11 08:53:48;;;;;;;1.30;1.20;;;;;;;;;;5066190;28;20040;-58
2024/01/11 08:56:16;;;;;;;1.80;1.70;;;;;;;;;;5070272;28;20044;-58
2024/01/11 08:58:42;;;;;;;1.02;1.02;;;;;;;;;;5066380;28;20052;-58
2024/01/11 09:01:08;;;;;;;1.48;1.38;;;;;;;;;;5061063;28;20060;-58
2024/01/11 09:03:37;;;;;;;2.58;2.38;;;;;;;;;;5052781;28;20048;-58
2024/01/11 09:06:04;;;;;;;2.38;1.52;;;;;;;;;;5052976;28;20044;-58
2024/01/11 09:08:30;;;;;;;1.30;1.23;;;;;;;;;;5070341;28;20053;-59
2024/01/11 09:11:00;;;;;;;0.70;0.70;;;;;;;;;;5062534;28;20041;-59
2024/01/11 09:13:27;;;;;;;2.83;2.55;;;;;;;;;;5054061;28;20121;-60
2024/01/11 09:15:53;;;;;;;1.10;0.85;;;;;;;;;;5054145;28;20128;-59
2024/01/11 09:18:20;;;;;;;0.52;0.52;;;;;;;;;;5067437;28;20207;-58
2024/01/11 09:20:47;;;;;;;0.88;0.88;;;;;;;;;;5066399;28;20048;-59
2024/01/11 09:23:13;;;;;;;1.40;1.35;;;;;;;;;;5073264;28;20044;-58
2024/01/11 09:25:39;;;;;;;1.73;1.63;;;;;;;;;;5073524;28;20044;-59
2024/01/11 09:28:05;;;;;;;;;;;0.90;90.20;;;;;;5072104;28;20050;-59
2024/01/11 09:30:31;;;;;;;1.05;1.05;;;1.00;90.10;;;;;;5073272;28;19927;-59
2024/01/11 09:32:57;;;;;;;0.95;0.95;;;;;;;;;;5072866;28;20127;-59
2024/01/11 09:35:23;;;;;;;3.72;2.00;;;;;;;;;;5073549;28;20055;-59
2024/01/11 09:37:49;;;;;;;2.55;1.42;;;;;;;;;;5059828;28;20040;-59
2024/01/11 09:40:16;;;;;;;;;;;;;;;;;;5061259;28;20069;-59
2024/01/11 09:42:43;;;;;;;2.00;1.85;;;;;;;;;;5053279;28;20374;-59
2024/01/11 09:45:17;;;;;;;3.58;2.22;;;1.00;86.60;;;;;;5053609;28;20045;-58
2024/01/11 09:47:46;;;;;;;4.05;2.17;;;;;;;;;;5053885;28;20133;-59
2024/01/11 09:50:17;;;;;;;0.75;0.73;;;;;;;;;;5053213;28;20702;-58
2024/01/11 09:52:52;;;;;;;1.35;1.25;;;;;;;;;;5053432;28;20048;-60
2024/01/11 09:55:19;;;;;;;3.55;1.58;;;;;;;;;;5053446;28;20559;-59
2024/01/11 09:57:46;;;;;;;0.82;0.68;;;;;;;;;;5062832;28;20049;-59
2024/01/11 10:00:22;;;;;;;1.95;1.52;;;1.00;91.10;;;;;;5056049;28;20064;-59
2024/01/11 10:02:48;;;;;;;1.40;1.30;;;;;;;;;;5064141;28;20052;-59
2024/01/11 10:05:14;;;;;;;1.65;1.55;;;;;;;;;;5072157;28;20051;-60
2024/01/11 10:07:40;;;;;;;7.57;3.15;;;;;;;;;;5061928;28;20049;-59
2024/01/11 10:10:07;;;;;;;2.97;2.17;;;1.20;92.90;;;;;;5070714;28;20040;-59
2024/01/11 10:12:35;;;;;;;1.15;1.15;;;;;;;;;;5061350;28;20049;-59
2024/01/11 10:15:09;;;;;;;1.40;1.27;;;;;;;;;;5070476;28;20044;-59
2024/01/11 10:17:45;;;;;;;1.00;1.00;;;;;;;;;;5072516;28;20044;-59
2024/01/11 10:20:13;;;;;;;0.60;0.60;;;;;;;;;;5040317;28;20072;-59
2024/01/11 10:22:41;;;;;;;1.40;1.10;;;;;;;;;;5066422;28;20048;-59
2024/01/11 10:25:12;;;;;;;0.73;0.73;;;1.60;95.00;;;;;;5064731;28;20049;-59
2024/01/11 10:27:43;;;;;;;1.92;1.08;;;1.30;94.90;;;;;;5067190;28;20052;-59
2024/01/11 10:30:10;;;;;;;1.48;0.77;;;1.30;95.30;;;;;;5072333;28;20087;-59
2024/01/11 10:32:36;;;;;;;1.25;0.90;;;;;;;;;;5056569;28;20049;-59
2024/01/11 10:35:05;;;;;;;0.57;0.55;;;;;;;;;;5052925;28;20127;-59
2024/01/11 10:37:33;;;;;;;1.05;1.00;;;;;;;;;;5052613;28;20041;-60
2024/01/11 10:40:03;;;;;;;1.17;1.10;;;;;;;;;;5052844;28;20041;-59
2024/01/11 10:42:31;;;;;;;3.28;0.80;;;;;;;;;;5052621;28;20520;-59
2024/01/11 10:44:59;;;;;;;0.70;0.70;;;;;;;;;;5052535;28;20053;-60
2024/01/11 10:47:29;;;;;;;4.22;1.35;;;1.30;98.00;;;;;;5052783;28;20126;-59
2024/01/11 10:49:57;;;;;;;1.20;1.08;;;1.80;98.40;;;;;;5052825;28;20041;-60
2024/01/11 10:52:28;;;;;;;1.25;1.15;;;1.70;98.30;;;;;;5057998;28;20040;-59
2024/01/11 10:54:54;;;;;;;2.00;1.80;;;;;;;;;;5071000;28;20148;-59
2024/01/11 10:57:20;;;;;;;5.43;1.08;;;;;;;;;;5069846;28;20049;-59
2024/01/11 10:59:48;;;;;;;1.35;1.30;;;;;;;;;;5071763;28;20056;-60
2024/01/11 11:02:15;;;;;;;1.20;1.20;;;;;;;;;;5058179;28;20109;-59
2024/01/11 11:04:43;;;;;;;0.93;0.93;;;;;;;;;;5072109;28;20575;-60
2024/01/11 11:07:09;;;;;;;0.55;0.55;;;1.70;99.30;;;;;;5045777;28;20396;-60
2024/01/11 11:09:35;;;;;;;;;;;;;;;;;;5071238;28;20049;-62
2024/01/11 11:12:03;;;;;;;1.45;1.35;;;;;;;;;;5071448;28;20019;-60
2024/01/11 11:14:32;;;;;;;1.48;1.38;;;2.00;99.90;;;;;;5071259;28;20071;-60
2024/01/11 11:16:58;;;;;;;1.42;1.13;;;;;;;;;;5071664;28;20075;-61
2024/01/11 11:19:25;;;;;;;2.13;1.48;;;2.00;99.90;;;;;;5071202;28;20048;-60
2024/01/11 11:21:51;;;;;;;0.80;0.57;;;;;;;;;;5063936;28;20488;-60
2024/01/11 11:24:18;;;;;;;0.32;0.32;;;;;;;;;;5064882;28;20059;-60
2024/01/11 11:26:44;;;;;;;3.22;2.95;;;;;;;;;;5051727;28;20077;-60
2024/01/11 11:29:10;;;;;;;2.28;1.30;;;;;;;;;;5051624;28;20132;-60
2024/01/11 11:31:37;;;;;;;0.55;0.55;;;2.20;99.90;;;;;;5051811;28;20059;-60
2024/01/11 11:34:06;;;;;;;1.50;1.40;;;;;;;;;;5051846;28;20044;-60
2024/01/11 11:36:33;;;;;;;1.08;1.05;;;;;;;;;;5060273;28;20102;-60
2024/01/11 11:39:28;;;;;;;1.13;0.98;;;;;;;;;;5126109;27;1257956;-63
2024/01/11 11:41:57;;;;;;;1.48;1.33;;;2.30;99.90;;;;;;5165730;27;20062;-62
2024/01/11 11:44:23;;;;;;;0.63;0.63;;;;;;;;;;5169964;27;20057;-62
2024/01/11 11:46:49;;;;;;;1.50;1.40;;;;;;;;;;5174625;27;20121;-61
2024/01/11 11:49:15;;;;;;;1.65;1.55;;;;;;;;;;5170462;27;20038;-62
2024/01/11 11:51:42;;;;;;;;;;;;;;;;;;5166511;27;20145;-64
2024/01/11 11:54:14;;;;;;;1.33;1.13;;;2.40;99.90;;;;;;5164618;27;19918;-61
2024/01/11 11:56:40;;;;;;;1.55;1.45;;;;;;;;;;5156259;27;20054;-62
2024/01/11 11:59:08;;;;;;;12.65;1.27;;;2.30;99.90;;;;;;5160385;27;20078;-62
2024/01/11 12:01:35;;;;;;;0.57;0.57;;;2.40;99.90;;;;;;5151091;27;20118;-61
2024/01/11 12:04:02;;;;;;;0.68;0.68;;;2.10;99.90;;;;;;5163131;27;20047;-62
2024/01/11 12:06:29;;;;;;;4.93;1.15;;;2.30;99.90;;;;;;5145213;27;20375;-62
2024/01/11 12:08:55;;;;;;;0.98;0.80;;;2.30;99.90;;;;;;5164402;27;20046;-61
2024/01/11 12:11:22;;;;;;;0.93;0.85;;;2.30;99.90;;;;;;5164298;27;20058;-62
2024/01/11 12:13:48;;;;;;;3.83;1.00;;;2.30;99.90;;;;;;5169311;27;20117;-62
2024/01/11 12:16:14;;;;;;;1.15;1.15;;;2.10;99.90;;;;;;5159514;27;20137;-62
2024/01/11 12:18:41;;;;;;;1.05;0.98;;;;;;;;;;5143195;27;20039;-62
2024/01/11 12:21:07;;;;;;;2.17;0.93;;;;;;;;;;5147190;27;20157;-62
2024/01/11 12:23:34;;;;;;;0.82;0.82;;;;;;;;;;5150616;27;20049;-62
2024/01/11 12:26:07;;;;;;;1.20;1.15;;;2.40;99.90;;;;;;5166661;27;20085;-61
2024/01/11 12:28:34;;;;;;;0.45;0.45;;;;;;;;;;5169296;27;20038;-62
2024/01/11 12:31:00;;;;;;;1.15;0.75;;;2.30;99.90;;;;;;5168144;27;20038;-62
2024/01/11 12:33:27;;;;;;;0.20;0.20;;;2.70;99.90;;;;;;5168073;27;20050;-62
2024/01/11 12:35:53;;;;;;;0.85;0.52;;;;;;;;;;5169318;27;20054;-62
2024/01/11 12:38:19;;;;;;;0.20;0.20;;;;;;;;;;5168917;27;20558;-62
2024/01/11 12:40:46;;;;;;;0.47;0.47;;;2.90;99.90;;;;;;5169744;27;20045;-62
2024/01/11 12:43:13;;;;;;;3.50;0.50;;;;;;;;;;5169500;27;20042;-64
2024/01/11 12:45:39;;;;;;;1.10;0.75;;;3.00;99.90;;;;;;5169391;27;20446;-62
2024/01/11 12:48:08;;;;;;;0.70;0.70;;;3.00;99.90;;;;;;5169501;27;20118;-64
2024/01/11 12:50:35;;;;;;;6.32;1.65;;;2.90;99.90;;;;;;5157113;27;20034;-62
2024/01/11 12:53:20;;;;;;;0.60;0.60;;;2.80;99.90;;;;;;5155465;27;20054;-61
2024/01/11 12:55:47;;;;;;;0.85;0.85;;;2.70;99.90;;;;;;5155262;27;20091;-62
2024/01/11 12:58:14;;;;;;;0.70;0.70;;;3.00;99.90;;;;;;5154982;27;20043;-63
2024/01/11 13:00:40;;;;;;;1.15;0.88;;;;;;;;;;5148032;27;20043;-64
2024/01/11 13:03:06;;;;;;;1.48;1.27;;;;;;;;;;5148635;27;20187;-69
2024/01/11 13:05:34;;;;;;;1.80;0.98;;;2.80;99.90;;;;;;5155256;27;20046;-62
2024/01/11 13:08:07;;;;;;;0.20;0.20;;;2.90;99.90;;;;;;5154791;27;20158;-62
2024/01/11 13:10:35;;;;;;;0.50;0.50;;;2.80;99.90;;;;;;5155483;27;20074;-62
2024/01/11 13:13:02;;;;;;;1.85;1.10;;;;;;;;;;5154769;27;20126;-62
2024/01/11 13:15:34;;;;;;;;;;;;;;;;;;5155190;27;20267;-62
2024/01/11 13:18:00;;;;;;;0.95;0.50;;;3.40;99.90;;;;;;5154585;27;19953;-63
2024/01/11 13:20:27;;;;;;;0.30;0.30;;;3.70;99.90;;;;;;5154884;27;20390;-62
2024/01/11 13:23:15;;;;;;;0.52;0.52;;;3.70;99.90;;;;;;5154527;27;20051;-63
2024/01/11 13:25:41;;;;;;;;;;;4.10;99.90;;;;;;5155230;27;20121;-62
2024/01/11 13:28:07;;;;;;;1.38;0.95;;;4.20;99.90;;;;;;5154630;27;19919;-62
2024/01/11 13:30:32;;;;;;;0.40;0.40;;;4.20;99.90;;;;;;5154777;27;20065;-61
2024/01/11 13:32:59;;;;;;;0.30;0.30;;;4.30;99.90;;;;;;5155100;27;20466;-62
2024/01/11 13:35:24;;;;;;;0.22;0.22;;;4.30;99.90;;;;;;5154630;27;20054;-61
2024/01/11 13:37:50;;;;;;;0.40;0.40;;;4.60;99.90;;;;;;5154150;27;20039;-62
2024/01/11 13:40:16;;;;;;;0.40;0.40;;;4.40;99.90;;;;;;5154819;27;20498;-61
2024/01/11 13:42:43;;;;;;;0.20;0.20;;;4.30;98.00;;;;;;5154090;27;20074;-61
2024/01/11 13:45:09;;;;;;;0.20;0.20;;;4.10;96.80;;;;;;5154669;27;20054;-62
2024/01/11 13:47:38;;;;;;;0.30;0.30;;;4.50;95.40;;;;;;5154239;27;20034;-61
2024/01/11 13:50:04;;;;;;;0.20;0.20;;;4.00;92.80;;;;;;5154419;27;20046;-62
2024/01/11 13:52:30;;;;;;;8.40;1.00;;;;;;;;;;5154313;27;20039;-62
2024/01/11 13:54:56;;;;;;;0.30;0.30;;;4.30;93.20;;;;;;5154407;27;20095;-68
2024/01/11 13:57:21;;;;;;;0.68;0.47;;;4.40;93.00;;;;;;5154096;27;20046;-63
2024/01/11 13:59:47;;;;;;;0.22;0.22;;;4.60;92.10;;;;;;5154038;27;20038;-65
2024/01/11 14:02:13;;;;;;;0.30;0.30;;;4.50;92.20;;;;;;5139034;27;20041;-62
2024/01/11 14:04:39;;;;;;;0.40;0.40;;;4.60;91.70;;;;;;5153955;27;20039;-62
2024/01/11 14:07:05;;;;;;;0.47;0.47;;;4.40;88.50;;;;;;5154208;27;20065;-62
2024/01/11 14:09:31;;;;;;;0.30;0.30;;;4.40;86.50;;;;;;5153546;27;20521;-62
2024/01/11 14:11:57;;;;;;;0.20;0.20;;;4.30;86.20;;;;;;5153302;27;20046;-62
2024/01/11 14:14:22;;;;;;;0.60;0.60;;;4.60;86.10;;;;;;5153592;27;20094;-62
2024/01/11 14:16:48;;;;;;;0.30;0.30;;;4.00;86.20;;;;;;5153718;27;20039;-61
2024/01/11 14:19:15;;;;;;;0.20;0.20;;;;;;;;;;5153797;27;20358;-62
2024/01/11 14:21:40;;;;;;;0.28;0.28;;;4.40;82.30;;;;;;5153855;27;20046;-61
2024/01/11 14:24:07;;;;;;;0.30;0.30;;;4.50;79.00;;;;;;5147218;27;20035;-61